sensor_id;sensor_type;location;lat;lon;timestamp;noise_LAeq;noise_LA_min;noise_LA_max;noise_LA01;noise_LA95
68599;Laerm;18038;50.166;18.908;2023-07-31T00:04:24;41.07;35.16;57.53;;
68599;Laerm;18038;50.166;18.908;2023-07-31T00:07:34;36.44;35.00;44.89;;
68599;Laerm;18038;50.166;18.908;2023-07-31T01:08:34;40.69;34.30;76.70;;
68599;Laerm;18038;50.166;18.908;2023-07-31T01:11:53;38.18;35.17;49.28;;
68599;Laerm;18038;50.166;18.908;2023-07-31T01:15:07;39.45;35.42;53.23;;
68599;Laerm;18038;50.166;18.908;2023-07-31T01:18:17;39.15;35.51;52.17;;
68599;Laerm;18038;50.166;18.908;2023-07-31T01:22:04;37.02;35.64;40.34;;
68599;Laerm;18038;50.166;18.908;2023-07-31T01:25:47;36.99;35.35;40.67;;
68599;Laerm;18038;50.166;18.908;2023-07-31T01:29:07;43.19;35.74;59.53;;
68599;Laerm;18038;50.166;18.908;2023-07-31T01:32:20;37.94;35.91;55.75;;
68599;Laerm;18038;50.166;18.908;2023-07-31T01:35:30;45.17;36.58;58.98;;
68599;Laerm;18038;50.166;18.908;2023-07-31T01:38:39;41.19;36.17;57.59;;
68599;Laerm;18038;50.166;18.908;2023-07-31T01:41:50;37.78;36.04;42.32;;
68599;Laerm;18038;50.166;18.908;2023-07-31T02:04:27;39.96;35.84;50.40;;
68599;Laerm;18038;50.166;18.908;2023-07-31T02:07:36;42.81;36.22;56.05;;
68599;Laerm;18038;50.166;18.908;2023-07-31T02:10:45;42.02;36.39;57.43;;
68599;Laerm;18038;50.166;18.908;2023-07-31T02:13:54;41.06;37.07;54.78;;
68599;Laerm;18038;50.166;18.908;2023-07-31T02:17:03;44.95;37.01;58.51;;
68599;Laerm;18038;50.166;18.908;2023-07-31T02:20:15;44.85;37.27;59.14;;
68599;Laerm;18038;50.166;18.908;2023-07-31T02:23:23;46.35;36.54;58.03;;
68599;Laerm;18038;50.166;18.908;2023-07-31T02:26:33;45.36;36.63;57.85;;
68599;Laerm;18038;50.166;18.908;2023-07-31T02:29:42;43.75;36.77;58.53;;
68599;Laerm;18038;50.166;18.908;2023-07-31T02:32:51;42.04;36.72;54.89;;
68599;Laerm;18038;50.166;18.908;2023-07-31T02:36:03;43.17;36.76;55.34;;
68599;Laerm;18038;50.166;18.908;2023-07-31T02:39:12;48.29;36.37;65.47;;
68599;Laerm;18038;50.166;18.908;2023-07-31T04:04:11;49.91;39.06;58.14;;
68599;Laerm;18038;50.166;18.908;2023-07-31T04:07:21;48.95;39.84;59.48;;
68599;Laerm;18038;50.166;18.908;2023-07-31T04:10:32;46.39;39.10;58.95;;
68599;Laerm;18038;50.166;18.908;2023-07-31T04:13:42;50.37;39.59;59.40;;
68599;Laerm;18038;50.166;18.908;2023-07-31T04:16:50;50.75;40.48;58.29;;
68599;Laerm;18038;50.166;18.908;2023-07-31T04:20:03;49.72;39.22;58.31;;
68599;Laerm;18038;50.166;18.908;2023-07-31T04:23:12;49.37;40.15;58.71;;
68599;Laerm;18038;50.166;18.908;2023-07-31T04:26:21;51.02;39.81;63.37;;
68599;Laerm;18038;50.166;18.908;2023-07-31T04:29:30;49.05;39.41;57.59;;
68599;Laerm;18038;50.166;18.908;2023-07-31T04:32:39;51.46;40.34;61.00;;
68599;Laerm;18038;50.166;18.908;2023-07-31T04:35:54;51.14;40.47;58.06;;
68599;Laerm;18038;50.166;18.908;2023-07-31T04:39:03;51.25;40.10;65.42;;
68599;Laerm;18038;50.166;18.908;2023-07-31T10:04:28;55.63;52.26;61.17;;
68599;Laerm;18038;50.166;18.908;2023-07-31T10:07:42;53.48;43.21;65.44;;
68599;Laerm;18038;50.166;18.908;2023-07-31T10:10:51;56.53;45.63;74.69;;
68599;Laerm;18038;50.166;18.908;2023-07-31T10:14:03;54.40;41.16;60.08;;
68599;Laerm;18038;50.166;18.908;2023-07-31T10:17:14;53.14;41.43;63.23;;
68599;Laerm;18038;50.166;18.908;2023-07-31T10:20:29;56.68;52.60;61.74;;
68599;Laerm;18038;50.166;18.908;2023-07-31T10:23:40;52.98;42.03;59.53;;
68599;Laerm;18038;50.166;18.908;2023-07-31T10:26:58;49.67;40.92;61.46;;
68599;Laerm;18038;50.166;18.908;2023-07-31T10:30:12;50.64;40.91;59.76;;
68599;Laerm;18038;50.166;18.908;2023-07-31T10:33:26;53.52;42.88;60.22;;
68599;Laerm;18038;50.166;18.908;2023-07-31T10:36:38;49.75;41.37;61.88;;
68599;Laerm;18038;50.166;18.908;2023-07-31T10:39:58;50.37;41.29;61.06;;
68599;Laerm;18038;50.166;18.908;2023-07-31T12:04:25;50.82;43.35;63.86;;
68599;Laerm;18038;50.166;18.908;2023-07-31T12:07:49;52.12;41.57;63.34;;
68599;Laerm;18038;50.166;18.908;2023-07-31T12:11:05;53.56;41.13;67.29;;
68599;Laerm;18038;50.166;18.908;2023-07-31T12:14:20;51.34;42.27;59.40;;
68599;Laerm;18038;50.166;18.908;2023-07-31T12:17:33;51.62;42.14;59.48;;
68599;Laerm;18038;50.166;18.908;2023-07-31T12:20:48;54.67;43.95;71.48;;
68599;Laerm;18038;50.166;18.908;2023-07-31T12:23:57;51.31;43.14;65.48;;
68599;Laerm;18038;50.166;18.908;2023-07-31T12:27:11;52.41;42.82;61.44;;
68599;Laerm;18038;50.166;18.908;2023-07-31T12:30:31;52.14;43.74;64.48;;
68599;Laerm;18038;50.166;18.908;2023-07-31T12:33:42;53.70;42.97;66.14;;
68599;Laerm;18038;50.166;18.908;2023-07-31T12:36:53;51.98;43.12;65.64;;
68599;Laerm;18038;50.166;18.908;2023-07-31T12:40:04;52.02;42.58;61.75;;
68599;Laerm;18038;50.166;18.908;2023-07-31T14:04:27;54.92;42.74;73.18;;
68599;Laerm;18038;50.166;18.908;2023-07-31T14:07:36;52.53;43.32;62.28;;
68599;Laerm;18038;50.166;18.908;2023-07-31T14:10:51;52.50;44.41;69.04;;
68599;Laerm;18038;50.166;18.908;2023-07-31T14:14:01;52.38;45.63;65.43;;
68599;Laerm;18038;50.166;18.908;2023-07-31T14:17:10;52.75;45.02;62.11;;
68599;Laerm;18038;50.166;18.908;2023-07-31T14:20:23;52.66;44.97;61.35;;
68599;Laerm;18038;50.166;18.908;2023-07-31T14:23:31;52.47;44.06;65.02;;
68599;Laerm;18038;50.166;18.908;2023-07-31T14:26:41;55.26;44.46;68.11;;
68599;Laerm;18038;50.166;18.908;2023-07-31T14:29:49;52.35;42.66;63.59;;
68599;Laerm;18038;50.166;18.908;2023-07-31T14:32:58;51.28;43.72;61.37;;
68599;Laerm;18038;50.166;18.908;2023-07-31T14:36:10;52.92;43.22;68.39;;
68599;Laerm;18038;50.166;18.908;2023-07-31T14:39:19;50.75;42.22;57.13;;
68599;Laerm;18038;50.166;18.908;2023-07-31T16:04:14;49.50;40.80;61.35;;
68599;Laerm;18038;50.166;18.908;2023-07-31T16:07:24;49.13;41.12;59.19;;
68599;Laerm;18038;50.166;18.908;2023-07-31T16:10:33;50.89;41.62;59.52;;
68599;Laerm;18038;50.166;18.908;2023-07-31T16:13:44;50.11;41.76;60.67;;
68599;Laerm;18038;50.166;18.908;2023-07-31T16:16:52;53.29;41.28;68.05;;
68599;Laerm;18038;50.166;18.908;2023-07-31T16:20:06;52.34;42.19;63.52;;
68599;Laerm;18038;50.166;18.908;2023-07-31T16:23:14;50.91;41.60;63.34;;
68599;Laerm;18038;50.166;18.908;2023-07-31T16:26:24;54.56;42.52;66.35;;
68599;Laerm;18038;50.166;18.908;2023-07-31T16:29:32;51.04;42.03;65.61;;
68599;Laerm;18038;50.166;18.908;2023-07-31T16:32:41;48.87;40.44;64.29;;
68599;Laerm;18038;50.166;18.908;2023-07-31T16:35:55;50.26;41.81;59.91;;
68599;Laerm;18038;50.166;18.908;2023-07-31T16:39:07;50.30;41.96;60.50;;
68599;Laerm;18038;50.166;18.908;2023-07-31T18:04:16;49.12;40.03;64.24;;
68599;Laerm;18038;50.166;18.908;2023-07-31T18:07:26;48.10;39.48;56.63;;
68599;Laerm;18038;50.166;18.908;2023-07-31T18:10:34;49.86;40.57;73.47;;
68599;Laerm;18038;50.166;18.908;2023-07-31T18:13:52;49.71;39.17;73.39;;
68599;Laerm;18038;50.166;18.908;2023-07-31T18:17:02;58.77;40.11;83.43;;
68599;Laerm;18038;50.166;18.908;2023-07-31T18:20:15;47.70;40.06;58.43;;
68599;Laerm;18038;50.166;18.908;2023-07-31T18:23:25;48.91;40.06;59.84;;
68599;Laerm;18038;50.166;18.908;2023-07-31T18:26:34;48.88;40.65;63.13;;
68599;Laerm;18038;50.166;18.908;2023-07-31T18:29:44;52.31;39.86;80.89;;
68599;Laerm;18038;50.166;18.908;2023-07-31T18:32:53;50.62;39.54;59.91;;
68599;Laerm;18038;50.166;18.908;2023-07-31T18:36:05;49.64;39.62;58.50;;
68599;Laerm;18038;50.166;18.908;2023-07-31T18:39:15;47.98;39.60;61.69;;
68599;Laerm;18038;50.166;18.908;2023-07-31T22:04:22;44.51;36.71;58.50;;
68599;Laerm;18038;50.166;18.908;2023-07-31T22:07:32;40.83;36.14;55.47;;
68599;Laerm;18038;50.166;18.908;2023-07-31T22:10:41;37.74;35.75;44.90;;
68599;Laerm;18038;50.166;18.908;2023-07-31T22:13:50;41.72;34.94;54.28;;
68599;Laerm;18038;50.166;18.908;2023-07-31T22:16:58;42.73;35.40;54.96;;
68599;Laerm;18038;50.166;18.908;2023-07-31T22:20:12;41.33;36.12;53.78;;
68599;Laerm;18038;50.166;18.908;2023-07-31T22:23:21;41.53;35.90;56.12;;
68599;Laerm;18038;50.166;18.908;2023-07-31T22:26:30;42.57;35.49;54.37;;
68599;Laerm;18038;50.166;18.908;2023-07-31T22:29:40;40.44;35.57;51.73;;
68599;Laerm;18038;50.166;18.908;2023-07-31T22:32:49;44.36;36.05;58.52;;
68599;Laerm;18038;50.166;18.908;2023-07-31T22:36:00;42.51;35.49;54.49;;
68599;Laerm;18038;50.166;18.908;2023-07-31T22:39:09;38.56;35.91;51.74;;
